PWSweather.com
Personal Weather Stations
Station Observations
BREEJEDURP
'sGravenzande, WestlandNL

'sGravenzandeWestlandNL

Lat: 52.00095260000001, Lon: 4.174256600000035

Elevation: 3

Station Type: Davis Vantage Pro2 Plus

www.breejedurp.nl

High Low Average
Temperature 50.2°F10.1°C 44.8°F7.1°C 48.3°F9.1°C
Dew Point 48.0°F8.9°C 43.7°F6.5°C 46.7°F8.2°C
Winds 16.0 mph 25.7 kmh 5.0 mph 8.0 kmh 10.0 mph SW16.1 kmh SW
Wind Gusts 27.0 mph43.5 kmh 9.0 mph14.5 kmh 16.0 mph25.7 kmh
Humidity 97% 91% 94%
Pressure 30.41 in1029.8 mb 30.26 in1024.7 mb -
Precipitation 0.00 in0.0 mm - -
Hour Temp Dew Point Humidity Winds Wind Gusts Pressure Precip Precip Rate Daily Precip Total
12:04 AM 44.8°F7.1°C 43.7°F6.5°C 96% 10.0 mph S16.1 kmh S 19.0 mph30.6 kmh 30.26 in1024.7 mb 0.00 in0.0 mm 0.00 in0.0 mm 0.00 in0.0 mm
12:09 AM 44.8°F7.1°C 43.7°F6.5°C 96% 11.0 mph SW17.7 kmh SW 18.0 mph29.0 kmh 30.26 in1024.7 mb 0.00 in0.0 mm 0.00 in0.0 mm 0.00 in0.0 mm
12:14 AM 45.0°F7.2°C 43.9°F6.6°C 96% 16.0 mph SW25.7 kmh SW 25.0 mph40.2 kmh 30.26 in1024.7 mb 0.00 in0.0 mm 0.00 in0.0 mm 0.00 in0.0 mm
12:19 AM 45.0°F7.2°C 43.9°F6.6°C 96% 16.0 mph SSW25.7 kmh SSW 27.0 mph43.5 kmh 30.27 in1025.1 mb 0.00 in0.0 mm 0.00 in0.0 mm 0.00 in0.0 mm
12:24 AM 45.1°F7.3°C 44.1°F6.7°C 96% 12.0 mph SW19.3 kmh SW 18.0 mph29.0 kmh 30.27 in1025.1 mb 0.00 in0.0 mm 0.00 in0.0 mm 0.00 in0.0 mm
12:29 AM 45.1°F7.3°C 44.1°F6.7°C 96% 12.0 mph SSW19.3 kmh SSW 20.0 mph32.2 kmh 30.27 in1025.1 mb 0.00 in0.0 mm 0.00 in0.0 mm 0.00 in0.0 mm
12:34 AM 45.1°F7.3°C 44.1°F6.7°C 96% 14.0 mph SW22.5 kmh SW 24.0 mph38.6 kmh 30.26 in1024.7 mb 0.00 in0.0 mm 0.00 in0.0 mm 0.00 in0.0 mm
12:39 AM 45.3°F7.4°C 44.2°F6.8°C 96% 9.0 mph S14.5 kmh S 13.0 mph20.9 kmh 30.27 in1025.1 mb 0.00 in0.0 mm 0.00 in0.0 mm 0.00 in0.0 mm
12:44 AM 45.5°F7.5°C 44.4°F6.9°C 96% 12.0 mph S19.3 kmh S 17.0 mph27.4 kmh 30.27 in1025.1 mb 0.00 in0.0 mm 0.00 in0.0 mm 0.00 in0.0 mm
12:49 AM 45.7°F7.6°C 44.6°F7.0°C 96% 10.0 mph SW16.1 kmh SW 18.0 mph29.0 kmh 30.27 in1025.1 mb 0.00 in0.0 mm 0.00 in0.0 mm 0.00 in0.0 mm
12:54 AM 45.7°F7.6°C 44.6°F7.0°C 96% 9.0 mph SW14.5 kmh SW 16.0 mph25.7 kmh 30.27 in1025.1 mb 0.00 in0.0 mm 0.00 in0.0 mm 0.00 in0.0 mm
12:59 AM 45.9°F7.7°C 44.8°F7.1°C 96% 14.0 mph WSW22.5 kmh WSW 22.0 mph35.4 kmh 30.27 in1025.1 mb 0.00 in0.0 mm 0.00 in0.0 mm 0.00 in0.0 mm
01:04 AM 45.9°F7.7°C 44.8°F7.1°C 96% 14.0 mph SSW22.5 kmh SSW 20.0 mph32.2 kmh 30.28 in1025.4 mb 0.00 in0.0 mm 0.00 in0.0 mm 0.00 in0.0 mm
01:09 AM 46.0°F7.8°C 45.0°F7.2°C 96% 12.0 mph SW19.3 kmh SW 20.0 mph32.2 kmh 30.28 in1025.4 mb 0.00 in0.0 mm 0.00 in0.0 mm 0.00 in0.0 mm
01:14 AM 46.0°F7.8°C 45.0°F7.2°C 96% 12.0 mph SW19.3 kmh SW 17.0 mph27.4 kmh 30.28 in1025.4 mb 0.00 in0.0 mm 0.00 in0.0 mm 0.00 in0.0 mm
01:19 AM 46.2°F7.9°C 45.1°F7.3°C 96% 12.0 mph SW19.3 kmh SW 17.0 mph27.4 kmh 30.27 in1025.1 mb 0.00 in0.0 mm 0.00 in0.0 mm 0.00 in0.0 mm
01:24 AM 46.2°F7.9°C 45.1°F7.3°C 96% 11.0 mph SW17.7 kmh SW 18.0 mph29.0 kmh 30.27 in1025.1 mb 0.00 in0.0 mm 0.00 in0.0 mm 0.00 in0.0 mm
01:29 AM 46.6°F8.1°C 45.8°F7.7°C 97% 13.0 mph SW20.9 kmh SW 18.0 mph29.0 kmh 30.27 in1025.1 mb 0.00 in0.0 mm 0.00 in0.0 mm 0.00 in0.0 mm
01:34 AM 46.8°F8.2°C 45.7°F7.6°C 96% 13.0 mph SW20.9 kmh SW 22.0 mph35.4 kmh 30.28 in1025.4 mb 0.00 in0.0 mm 0.00 in0.0 mm 0.00 in0.0 mm
01:39 AM 46.8°F8.2°C 46.0°F7.8°C 97% 12.0 mph SW19.3 kmh SW 18.0 mph29.0 kmh 30.27 in1025.1 mb 0.00 in0.0 mm 0.00 in0.0 mm 0.00 in0.0 mm
01:44 AM 46.9°F8.3°C 46.1°F7.8°C 97% 9.0 mph SW14.5 kmh SW 16.0 mph25.7 kmh 30.28 in1025.4 mb 0.00 in0.0 mm 0.00 in0.0 mm 0.00 in0.0 mm
01:49 AM 46.8°F8.2°C 45.7°F7.6°C 96% 14.0 mph SW22.5 kmh SW 21.0 mph33.8 kmh 30.28 in1025.4 mb 0.00 in0.0 mm 0.00 in0.0 mm 0.00 in0.0 mm
01:54 AM 46.8°F8.2°C 45.7°F7.6°C 96% 10.0 mph SSW16.1 kmh SSW 16.0 mph25.7 kmh 30.28 in1025.4 mb 0.00 in0.0 mm 0.00 in0.0 mm 0.00 in0.0 mm
01:59 AM 46.6°F8.1°C 45.5°F7.5°C 96% 11.0 mph SSW17.7 kmh SSW 20.0 mph32.2 kmh 30.27 in1025.1 mb 0.00 in0.0 mm 0.00 in0.0 mm 0.00 in0.0 mm
02:04 AM 46.6°F8.1°C 45.8°F7.7°C 97% 12.0 mph SW19.3 kmh SW 21.0 mph33.8 kmh 30.28 in1025.4 mb 0.00 in0.0 mm 0.00 in0.0 mm 0.00 in0.0 mm
02:09 AM 46.4°F8.0°C 45.6°F7.6°C 97% 9.0 mph SW14.5 kmh SW 13.0 mph20.9 kmh 30.28 in1025.4 mb 0.00 in0.0 mm 0.00 in0.0 mm 0.00 in0.0 mm
02:14 AM 46.4°F8.0°C 45.6°F7.6°C 97% 7.0 mph S11.3 kmh S 12.0 mph19.3 kmh 30.28 in1025.4 mb 0.00 in0.0 mm 0.00 in0.0 mm 0.00 in0.0 mm
02:19 AM 46.6°F8.1°C 45.8°F7.7°C 97% 12.0 mph SW19.3 kmh SW 18.0 mph29.0 kmh 30.28 in1025.4 mb 0.00 in0.0 mm 0.00 in0.0 mm 0.00 in0.0 mm
02:24 AM 46.6°F8.1°C 45.8°F7.7°C 97% 14.0 mph SW22.5 kmh SW 19.0 mph30.6 kmh 30.28 in1025.4 mb 0.00 in0.0 mm 0.00 in0.0 mm 0.00 in0.0 mm
02:29 AM 46.8°F8.2°C 46.0°F7.8°C 97% 9.0 mph SW14.5 kmh SW 13.0 mph20.9 kmh 30.28 in1025.4 mb 0.00 in0.0 mm 0.00 in0.0 mm 0.00 in0.0 mm
02:34 AM 46.8°F8.2°C 46.0°F7.8°C 97% 9.0 mph SW14.5 kmh SW 14.0 mph22.5 kmh 30.29 in1025.7 mb 0.00 in0.0 mm 0.00 in0.0 mm 0.00 in0.0 mm
02:39 AM 46.9°F8.3°C 46.1°F7.8°C 97% 8.0 mph SW12.9 kmh SW 15.0 mph24.1 kmh 30.29 in1025.7 mb 0.00 in0.0 mm 0.00 in0.0 mm 0.00 in0.0 mm
02:44 AM 47.1°F8.4°C 46.3°F7.9°C 97% 7.0 mph SW11.3 kmh SW 19.0 mph30.6 kmh 30.29 in1025.7 mb 0.00 in0.0 mm 0.00 in0.0 mm 0.00 in0.0 mm
02:49 AM 47.1°F8.4°C 46.3°F7.9°C 97% 12.0 mph SW19.3 kmh SW 19.0 mph30.6 kmh 30.29 in1025.7 mb 0.00 in0.0 mm 0.00 in0.0 mm 0.00 in0.0 mm
02:54 AM 47.1°F8.4°C 46.3°F7.9°C 97% 10.0 mph SW16.1 kmh SW 16.0 mph25.7 kmh 30.29 in1025.7 mb 0.00 in0.0 mm 0.00 in0.0 mm 0.00 in0.0 mm
02:59 AM 47.3°F8.5°C 46.5°F8.1°C 97% 11.0 mph SW17.7 kmh SW 19.0 mph30.6 kmh 30.29 in1025.7 mb 0.00 in0.0 mm 0.00 in0.0 mm 0.00 in0.0 mm
03:04 AM 47.5°F8.6°C 46.7°F8.2°C 97% 11.0 mph SW17.7 kmh SW 20.0 mph32.2 kmh 30.30 in1026.1 mb 0.00 in0.0 mm 0.00 in0.0 mm 0.00 in0.0 mm
03:09 AM 47.5°F8.6°C 46.7°F8.2°C 97% 13.0 mph SW20.9 kmh SW 20.0 mph32.2 kmh 30.29 in1025.7 mb 0.00 in0.0 mm 0.00 in0.0 mm 0.00 in0.0 mm
03:14 AM 47.7°F8.7°C 46.9°F8.3°C 97% 13.0 mph SW20.9 kmh SW 21.0 mph33.8 kmh 30.29 in1025.7 mb 0.00 in0.0 mm 0.00 in0.0 mm 0.00 in0.0 mm
03:19 AM 47.7°F8.7°C 46.9°F8.3°C 97% 8.0 mph SSW12.9 kmh SSW 22.0 mph35.4 kmh 30.29 in1025.7 mb 0.00 in0.0 mm 0.00 in0.0 mm 0.00 in0.0 mm
03:24 AM 47.7°F8.7°C 46.9°F8.3°C 97% 8.0 mph SW12.9 kmh SW 17.0 mph27.4 kmh 30.29 in1025.7 mb 0.00 in0.0 mm 0.00 in0.0 mm 0.00 in0.0 mm
03:29 AM 47.7°F8.7°C 46.9°F8.3°C 97% 10.0 mph SW16.1 kmh SW 14.0 mph22.5 kmh 30.30 in1026.1 mb 0.00 in0.0 mm 0.00 in0.0 mm 0.00 in0.0 mm
03:34 AM 47.7°F8.7°C 46.9°F8.3°C 97% 8.0 mph SW12.9 kmh SW 13.0 mph20.9 kmh 30.30 in1026.1 mb 0.00 in0.0 mm 0.00 in0.0 mm 0.00 in0.0 mm
03:39 AM 47.8°F8.8°C 47.0°F8.3°C 97% 10.0 mph S16.1 kmh S 16.0 mph25.7 kmh 30.30 in1026.1 mb 0.00 in0.0 mm 0.00 in0.0 mm 0.00 in0.0 mm
03:44 AM 47.8°F8.8°C 47.0°F8.3°C 97% 11.0 mph SW17.7 kmh SW 16.0 mph25.7 kmh 30.30 in1026.1 mb 0.00 in0.0 mm 0.00 in0.0 mm 0.00 in0.0 mm
03:49 AM 48.0°F8.9°C 47.2°F8.4°C 97% 10.0 mph SW16.1 kmh SW 16.0 mph25.7 kmh 30.30 in1026.1 mb 0.00 in0.0 mm 0.00 in0.0 mm 0.00 in0.0 mm
03:54 AM 48.0°F8.9°C 47.2°F8.4°C 97% 11.0 mph SW17.7 kmh SW 15.0 mph24.1 kmh 30.29 in1025.7 mb 0.00 in0.0 mm 0.00 in0.0 mm 0.00 in0.0 mm
03:59 AM 47.8°F8.8°C 47.0°F8.3°C 97% 11.0 mph WSW17.7 kmh WSW 18.0 mph29.0 kmh 30.29 in1025.7 mb 0.00 in0.0 mm 0.00 in0.0 mm 0.00 in0.0 mm
04:04 AM 47.8°F8.8°C 47.0°F8.3°C 97% 10.0 mph WSW16.1 kmh WSW 17.0 mph27.4 kmh 30.29 in1025.7 mb 0.00 in0.0 mm 0.00 in0.0 mm 0.00 in0.0 mm
04:09 AM 47.8°F8.8°C 47.0°F8.3°C 97% 6.0 mph SW9.7 kmh SW 11.0 mph17.7 kmh 30.30 in1026.1 mb 0.00 in0.0 mm 0.00 in0.0 mm 0.00 in0.0 mm
04:14 AM 48.0°F8.9°C 47.2°F8.4°C 97% 7.0 mph SSW11.3 kmh SSW 12.0 mph19.3 kmh 30.30 in1026.1 mb 0.00 in0.0 mm 0.00 in0.0 mm 0.00 in0.0 mm
04:19 AM 48.0°F8.9°C 47.2°F8.4°C 97% 9.0 mph SW14.5 kmh SW 15.0 mph24.1 kmh 30.30 in1026.1 mb 0.00 in0.0 mm 0.00 in0.0 mm 0.00 in0.0 mm
04:24 AM 48.2°F9.0°C 47.4°F8.6°C 97% 9.0 mph WSW14.5 kmh WSW 18.0 mph29.0 kmh 30.31 in1026.4 mb 0.00 in0.0 mm 0.00 in0.0 mm 0.00 in0.0 mm
04:29 AM 48.6°F9.2°C 47.7°F8.7°C 97% 9.0 mph SW14.5 kmh SW 15.0 mph24.1 kmh 30.30 in1026.1 mb 0.00 in0.0 mm 0.00 in0.0 mm 0.00 in0.0 mm
04:34 AM 48.4°F9.1°C 47.6°F8.7°C 97% 9.0 mph WSW14.5 kmh WSW 14.0 mph22.5 kmh 30.30 in1026.1 mb 0.00 in0.0 mm 0.00 in0.0 mm 0.00 in0.0 mm
04:39 AM 48.6°F9.2°C 47.7°F8.7°C 97% 10.0 mph WSW16.1 kmh WSW 20.0 mph32.2 kmh 30.30 in1026.1 mb 0.00 in0.0 mm 0.00 in0.0 mm 0.00 in0.0 mm
04:44 AM 48.6°F9.2°C 47.7°F8.7°C 97% 11.0 mph WSW17.7 kmh WSW 18.0 mph29.0 kmh 30.30 in1026.1 mb 0.00 in0.0 mm 0.00 in0.0 mm 0.00 in0.0 mm
04:49 AM 48.6°F9.2°C 47.7°F8.7°C 97% 7.0 mph WSW11.3 kmh WSW 14.0 mph22.5 kmh 30.30 in1026.1 mb 0.00 in0.0 mm 0.00 in0.0 mm 0.00 in0.0 mm
04:54 AM 48.6°F9.2°C 47.7°F8.7°C 97% 13.0 mph W20.9 kmh W 19.0 mph30.6 kmh 30.31 in1026.4 mb 0.00 in0.0 mm 0.00 in0.0 mm 0.00 in0.0 mm
04:59 AM 48.4°F9.1°C 47.3°F8.5°C 96% 10.0 mph SW16.1 kmh SW 17.0 mph27.4 kmh 30.31 in1026.4 mb 0.00 in0.0 mm 0.00 in0.0 mm 0.00 in0.0 mm
05:04 AM 48.4°F9.1°C 47.3°F8.5°C 96% 12.0 mph W19.3 kmh W 20.0 mph32.2 kmh 30.31 in1026.4 mb 0.00 in0.0 mm 0.00 in0.0 mm 0.00 in0.0 mm
05:09 AM 48.4°F9.1°C 47.3°F8.5°C 96% 14.0 mph W22.5 kmh W 18.0 mph29.0 kmh 30.31 in1026.4 mb 0.00 in0.0 mm 0.00 in0.0 mm 0.00 in0.0 mm
05:14 AM 48.2°F9.0°C 47.1°F8.4°C 96% 13.0 mph WSW20.9 kmh WSW 18.0 mph29.0 kmh 30.31 in1026.4 mb 0.00 in0.0 mm 0.00 in0.0 mm 0.00 in0.0 mm
05:19 AM 48.2°F9.0°C 47.1°F8.4°C 96% 13.0 mph W20.9 kmh W 18.0 mph29.0 kmh 30.32 in1026.8 mb 0.00 in0.0 mm 0.00 in0.0 mm 0.00 in0.0 mm
05:24 AM 48.4°F9.1°C 47.3°F8.5°C 96% 13.0 mph WSW20.9 kmh WSW 20.0 mph32.2 kmh 30.32 in1026.8 mb 0.00 in0.0 mm 0.00 in0.0 mm 0.00 in0.0 mm
05:29 AM 48.4°F9.1°C 47.3°F8.5°C 96% 9.0 mph W14.5 kmh W 16.0 mph25.7 kmh 30.32 in1026.8 mb 0.00 in0.0 mm 0.00 in0.0 mm 0.00 in0.0 mm
05:34 AM 48.6°F9.2°C 47.5°F8.6°C 96% 11.0 mph SW17.7 kmh SW 15.0 mph24.1 kmh 30.32 in1026.8 mb 0.00 in0.0 mm 0.00 in0.0 mm 0.00 in0.0 mm
05:39 AM 48.6°F9.2°C 47.5°F8.6°C 96% 7.0 mph WSW11.3 kmh WSW 13.0 mph20.9 kmh 30.32 in1026.8 mb 0.00 in0.0 mm 0.00 in0.0 mm 0.00 in0.0 mm
05:44 AM 48.6°F9.2°C 47.5°F8.6°C 96% 8.0 mph WSW12.9 kmh WSW 12.0 mph19.3 kmh 30.32 in1026.8 mb 0.00 in0.0 mm 0.00 in0.0 mm 0.00 in0.0 mm
05:49 AM 48.6°F9.2°C 47.5°F8.6°C 96% 9.0 mph W14.5 kmh W 15.0 mph24.1 kmh 30.32 in1026.8 mb 0.00 in0.0 mm 0.00 in0.0 mm 0.00 in0.0 mm
05:54 AM 48.7°F9.3°C 47.7°F8.7°C 96% 8.0 mph WSW12.9 kmh WSW 12.0 mph19.3 kmh 30.32 in1026.8 mb 0.00 in0.0 mm 0.00 in0.0 mm 0.00 in0.0 mm
05:59 AM 48.7°F9.3°C 47.4°F8.6°C 95% 6.0 mph SSW9.7 kmh SSW 11.0 mph17.7 kmh 30.32 in1026.8 mb 0.00 in0.0 mm 0.00 in0.0 mm 0.00 in0.0 mm
06:04 AM 48.7°F9.3°C 47.4°F8.6°C 95% 11.0 mph WSW17.7 kmh WSW 16.0 mph25.7 kmh 30.32 in1026.8 mb 0.00 in0.0 mm 0.00 in0.0 mm 0.00 in0.0 mm
06:09 AM 48.6°F9.2°C 47.2°F8.4°C 95% 6.0 mph SW9.7 kmh SW 11.0 mph17.7 kmh 30.32 in1026.8 mb 0.00 in0.0 mm 0.00 in0.0 mm 0.00 in0.0 mm
06:14 AM 48.6°F9.2°C 47.2°F8.4°C 95% 8.0 mph SW12.9 kmh SW 12.0 mph19.3 kmh 30.32 in1026.8 mb 0.00 in0.0 mm 0.00 in0.0 mm 0.00 in0.0 mm
06:19 AM 48.6°F9.2°C 47.2°F8.4°C 95% 9.0 mph SW14.5 kmh SW 14.0 mph22.5 kmh 30.32 in1026.8 mb 0.00 in0.0 mm 0.00 in0.0 mm 0.00 in0.0 mm
06:24 AM 48.6°F9.2°C 47.2°F8.4°C 95% 7.0 mph WSW11.3 kmh WSW 15.0 mph24.1 kmh 30.32 in1026.8 mb 0.00 in0.0 mm 0.00 in0.0 mm 0.00 in0.0 mm
06:29 AM 48.6°F9.2°C 47.2°F8.4°C 95% 10.0 mph W16.1 kmh W 18.0 mph29.0 kmh 30.33 in1027.1 mb 0.00 in0.0 mm 0.00 in0.0 mm 0.00 in0.0 mm
06:34 AM 48.7°F9.3°C 47.4°F8.6°C 95% 6.0 mph SSW9.7 kmh SSW 9.0 mph14.5 kmh 30.33 in1027.1 mb 0.00 in0.0 mm 0.00 in0.0 mm 0.00 in0.0 mm
06:39 AM 48.6°F9.2°C 47.2°F8.4°C 95% 10.0 mph WSW16.1 kmh WSW 17.0 mph27.4 kmh 30.33 in1027.1 mb 0.00 in0.0 mm 0.00 in0.0 mm 0.00 in0.0 mm
06:44 AM 48.6°F9.2°C 47.2°F8.4°C 95% 8.0 mph SW12.9 kmh SW 16.0 mph25.7 kmh 30.33 in1027.1 mb 0.00 in0.0 mm 0.00 in0.0 mm 0.00 in0.0 mm
06:49 AM 48.6°F9.2°C 47.2°F8.4°C 95% 8.0 mph SW12.9 kmh SW 15.0 mph24.1 kmh 30.33 in1027.1 mb 0.00 in0.0 mm 0.00 in0.0 mm 0.00 in0.0 mm
06:54 AM 48.6°F9.2°C 47.2°F8.4°C 95% 8.0 mph WSW12.9 kmh WSW 14.0 mph22.5 kmh 30.34 in1027.4 mb 0.00 in0.0 mm 0.00 in0.0 mm 0.00 in0.0 mm
06:59 AM 48.4°F9.1°C 47.0°F8.3°C 95% 8.0 mph SW12.9 kmh SW 13.0 mph20.9 kmh 30.34 in1027.4 mb 0.00 in0.0 mm 0.00 in0.0 mm 0.00 in0.0 mm
07:04 AM 48.6°F9.2°C 47.2°F8.4°C 95% 11.0 mph SW17.7 kmh SW 17.0 mph27.4 kmh 30.35 in1027.8 mb 0.00 in0.0 mm 0.00 in0.0 mm 0.00 in0.0 mm
07:09 AM 48.6°F9.2°C 47.2°F8.4°C 95% 6.0 mph WSW9.7 kmh WSW 10.0 mph16.1 kmh 30.35 in1027.8 mb 0.00 in0.0 mm 0.00 in0.0 mm 0.00 in0.0 mm
07:14 AM 48.6°F9.2°C 46.9°F8.3°C 94% 7.0 mph WSW11.3 kmh WSW 10.0 mph16.1 kmh 30.35 in1027.8 mb 0.00 in0.0 mm 0.00 in0.0 mm 0.00 in0.0 mm
07:19 AM 48.6°F9.2°C 46.9°F8.3°C 94% 10.0 mph SW16.1 kmh SW 17.0 mph27.4 kmh 30.35 in1027.8 mb 0.00 in0.0 mm 0.00 in0.0 mm 0.00 in0.0 mm
07:24 AM 48.6°F9.2°C 46.9°F8.3°C 94% 9.0 mph W14.5 kmh W 18.0 mph29.0 kmh 30.35 in1027.8 mb 0.00 in0.0 mm 0.00 in0.0 mm 0.00 in0.0 mm
07:29 AM 48.4°F9.1°C 46.7°F8.2°C 94% 7.0 mph WSW11.3 kmh WSW 14.0 mph22.5 kmh 30.35 in1027.8 mb 0.00 in0.0 mm 0.00 in0.0 mm 0.00 in0.0 mm
07:34 AM 48.6°F9.2°C 46.9°F8.3°C 94% 8.0 mph WSW12.9 kmh WSW 11.0 mph17.7 kmh 30.35 in1027.8 mb 0.00 in0.0 mm 0.00 in0.0 mm 0.00 in0.0 mm
07:39 AM 48.4°F9.1°C 46.7°F8.2°C 94% 8.0 mph SW12.9 kmh SW 13.0 mph20.9 kmh 30.36 in1028.1 mb 0.00 in0.0 mm 0.00 in0.0 mm 0.00 in0.0 mm
07:44 AM 48.4°F9.1°C 46.7°F8.2°C 94% 7.0 mph SW11.3 kmh SW 12.0 mph19.3 kmh 30.36 in1028.1 mb 0.00 in0.0 mm 0.00 in0.0 mm 0.00 in0.0 mm
07:49 AM 48.2°F9.0°C 46.6°F8.1°C 94% 6.0 mph SW9.7 kmh SW 11.0 mph17.7 kmh 30.37 in1028.4 mb 0.00 in0.0 mm 0.00 in0.0 mm 0.00 in0.0 mm
07:54 AM 48.2°F9.0°C 46.6°F8.1°C 94% 7.0 mph S11.3 kmh S 11.0 mph17.7 kmh 30.36 in1028.1 mb 0.00 in0.0 mm 0.00 in0.0 mm 0.00 in0.0 mm
08:00 AM 48.0°F8.9°C 46.1°F7.8°C 93% 8.0 mph WSW12.9 kmh WSW 11.0 mph17.7 kmh 30.36 in1028.1 mb 0.00 in0.0 mm 0.00 in0.0 mm 0.00 in0.0 mm
08:04 AM 48.0°F8.9°C 46.1°F7.8°C 93% 7.0 mph SW11.3 kmh SW 14.0 mph22.5 kmh 30.37 in1028.4 mb 0.00 in0.0 mm 0.00 in0.0 mm 0.00 in0.0 mm
08:09 AM 48.0°F8.9°C 46.1°F7.8°C 93% 7.0 mph SW11.3 kmh SW 11.0 mph17.7 kmh 30.36 in1028.1 mb 0.00 in0.0 mm 0.00 in0.0 mm 0.00 in0.0 mm
08:14 AM 48.0°F8.9°C 46.1°F7.8°C 93% 6.0 mph SW9.7 kmh SW 12.0 mph19.3 kmh 30.37 in1028.4 mb 0.00 in0.0 mm 0.00 in0.0 mm 0.00 in0.0 mm
08:19 AM 47.8°F8.8°C 45.9°F7.7°C 93% 5.0 mph SW8.0 kmh SW 12.0 mph19.3 kmh 30.37 in1028.4 mb 0.00 in0.0 mm 0.00 in0.0 mm 0.00 in0.0 mm
08:24 AM 47.8°F8.8°C 45.9°F7.7°C 93% 10.0 mph WSW16.1 kmh WSW 16.0 mph25.7 kmh 30.37 in1028.4 mb 0.00 in0.0 mm 0.00 in0.0 mm 0.00 in0.0 mm
08:29 AM 47.8°F8.8°C 45.9°F7.7°C 93% 13.0 mph W20.9 kmh W 17.0 mph27.4 kmh 30.37 in1028.4 mb 0.00 in0.0 mm 0.00 in0.0 mm 0.00 in0.0 mm
08:34 AM 47.8°F8.8°C 45.9°F7.7°C 93% 8.0 mph WSW12.9 kmh WSW 12.0 mph19.3 kmh 30.37 in1028.4 mb 0.00 in0.0 mm 0.00 in0.0 mm 0.00 in0.0 mm
08:39 AM 47.8°F8.8°C 45.9°F7.7°C 93% 9.0 mph WSW14.5 kmh WSW 12.0 mph19.3 kmh 30.37 in1028.4 mb 0.00 in0.0 mm 0.00 in0.0 mm 0.00 in0.0 mm
08:44 AM 47.8°F8.8°C 45.9°F7.7°C 93% 6.0 mph WSW9.7 kmh WSW 11.0 mph17.7 kmh 30.37 in1028.4 mb 0.00 in0.0 mm 0.00 in0.0 mm 0.00 in0.0 mm
08:49 AM 47.8°F8.8°C 45.9°F7.7°C 93% 6.0 mph SW9.7 kmh SW 12.0 mph19.3 kmh 30.37 in1028.4 mb 0.00 in0.0 mm 0.00 in0.0 mm 0.00 in0.0 mm
08:54 AM 47.8°F8.8°C 45.9°F7.7°C 93% 7.0 mph W11.3 kmh W 10.0 mph16.1 kmh 30.37 in1028.4 mb 0.00 in0.0 mm 0.00 in0.0 mm 0.00 in0.0 mm
08:59 AM 47.8°F8.8°C 45.9°F7.7°C 93% 7.0 mph SW11.3 kmh SW 12.0 mph19.3 kmh 30.38 in1028.8 mb 0.00 in0.0 mm 0.00 in0.0 mm 0.00 in0.0 mm
09:04 AM 48.0°F8.9°C 46.1°F7.8°C 93% 6.0 mph SW9.7 kmh SW 12.0 mph19.3 kmh 30.39 in1029.1 mb 0.00 in0.0 mm 0.00 in0.0 mm 0.00 in0.0 mm
09:09 AM 48.0°F8.9°C 45.8°F7.7°C 92% 6.0 mph SW9.7 kmh SW 10.0 mph16.1 kmh 30.39 in1029.1 mb 0.00 in0.0 mm 0.00 in0.0 mm 0.00 in0.0 mm
09:14 AM 48.0°F8.9°C 45.8°F7.7°C 92% 6.0 mph SW9.7 kmh SW 9.0 mph14.5 kmh 30.39 in1029.1 mb 0.00 in0.0 mm 0.00 in0.0 mm 0.00 in0.0 mm
09:19 AM 48.2°F9.0°C 46.3°F7.9°C 93% 8.0 mph SW12.9 kmh SW 13.0 mph20.9 kmh 30.38 in1028.8 mb 0.00 in0.0 mm 0.00 in0.0 mm 0.00 in0.0 mm
09:24 AM 48.4°F9.1°C 46.5°F8.1°C 93% 6.0 mph SW9.7 kmh SW 9.0 mph14.5 kmh 30.38 in1028.8 mb 0.00 in0.0 mm 0.00 in0.0 mm 0.00 in0.0 mm
09:29 AM 48.4°F9.1°C 46.5°F8.1°C 93% 7.0 mph WSW11.3 kmh WSW 12.0 mph19.3 kmh 30.39 in1029.1 mb 0.00 in0.0 mm 0.00 in0.0 mm 0.00 in0.0 mm
09:34 AM 48.4°F9.1°C 46.5°F8.1°C 93% 7.0 mph SW11.3 kmh SW 12.0 mph19.3 kmh 30.39 in1029.1 mb 0.00 in0.0 mm 0.00 in0.0 mm 0.00 in0.0 mm
09:39 AM 48.0°F8.9°C 46.1°F7.8°C 93% 8.0 mph SW12.9 kmh SW 14.0 mph22.5 kmh 30.39 in1029.1 mb 0.00 in0.0 mm 0.00 in0.0 mm 0.00 in0.0 mm
09:44 AM 47.8°F8.8°C 45.9°F7.7°C 93% 6.0 mph WSW9.7 kmh WSW 10.0 mph16.1 kmh 30.39 in1029.1 mb 0.00 in0.0 mm 0.00 in0.0 mm 0.00 in0.0 mm
09:49 AM 47.8°F8.8°C 45.9°F7.7°C 93% 9.0 mph SW14.5 kmh SW 12.0 mph19.3 kmh 30.39 in1029.1 mb 0.00 in0.0 mm 0.00 in0.0 mm 0.00 in0.0 mm
09:54 AM 47.7°F8.7°C 45.7°F7.6°C 93% 6.0 mph SW9.7 kmh SW 10.0 mph16.1 kmh 30.40 in1029.5 mb 0.00 in0.0 mm 0.00 in0.0 mm 0.00 in0.0 mm
09:59 AM 47.7°F8.7°C 45.7°F7.6°C 93% 6.0 mph SW9.7 kmh SW 10.0 mph16.1 kmh 30.40 in1029.5 mb 0.00 in0.0 mm 0.00 in0.0 mm 0.00 in0.0 mm
10:04 AM 47.8°F8.8°C 45.9°F7.7°C 93% 6.0 mph SW9.7 kmh SW 10.0 mph16.1 kmh 30.40 in1029.5 mb 0.00 in0.0 mm 0.00 in0.0 mm 0.00 in0.0 mm
10:09 AM 47.8°F8.8°C 45.9°F7.7°C 93% 8.0 mph SW12.9 kmh SW 14.0 mph22.5 kmh 30.39 in1029.1 mb 0.00 in0.0 mm 0.00 in0.0 mm 0.00 in0.0 mm
10:14 AM 47.8°F8.8°C 45.9°F7.7°C 93% 7.0 mph SW11.3 kmh SW 14.0 mph22.5 kmh 30.39 in1029.1 mb 0.00 in0.0 mm 0.00 in0.0 mm 0.00 in0.0 mm
10:19 AM 48.0°F8.9°C 46.1°F7.8°C 93% 8.0 mph SW12.9 kmh SW 17.0 mph27.4 kmh 30.39 in1029.1 mb 0.00 in0.0 mm 0.00 in0.0 mm 0.00 in0.0 mm
10:24 AM 48.2°F9.0°C 46.3°F7.9°C 93% 10.0 mph SW16.1 kmh SW 14.0 mph22.5 kmh 30.40 in1029.5 mb 0.00 in0.0 mm 0.00 in0.0 mm 0.00 in0.0 mm
10:29 AM 48.4°F9.1°C 46.5°F8.1°C 93% 8.0 mph SW12.9 kmh SW 14.0 mph22.5 kmh 30.40 in1029.5 mb 0.00 in0.0 mm 0.00 in0.0 mm 0.00 in0.0 mm
10:34 AM 48.6°F9.2°C 46.6°F8.1°C 93% 8.0 mph SSW12.9 kmh SSW 11.0 mph17.7 kmh 30.40 in1029.5 mb 0.00 in0.0 mm 0.00 in0.0 mm 0.00 in0.0 mm
10:39 AM 48.7°F9.3°C 46.5°F8.1°C 92% 11.0 mph SW17.7 kmh SW 17.0 mph27.4 kmh 30.40 in1029.5 mb 0.00 in0.0 mm 0.00 in0.0 mm 0.00 in0.0 mm
10:44 AM 49.1°F9.5°C 46.9°F8.3°C 92% 12.0 mph WSW19.3 kmh WSW 20.0 mph32.2 kmh 30.40 in1029.5 mb 0.00 in0.0 mm 0.00 in0.0 mm 0.00 in0.0 mm
10:49 AM 49.5°F9.7°C 47.2°F8.4°C 92% 10.0 mph SW16.1 kmh SW 14.0 mph22.5 kmh 30.40 in1029.5 mb 0.00 in0.0 mm 0.00 in0.0 mm 0.00 in0.0 mm
10:54 AM 49.5°F9.7°C 46.9°F8.3°C 91% 9.0 mph W14.5 kmh W 16.0 mph25.7 kmh 30.40 in1029.5 mb 0.00 in0.0 mm 0.00 in0.0 mm 0.00 in0.0 mm
10:59 AM 49.5°F9.7°C 46.9°F8.3°C 91% 8.0 mph SW12.9 kmh SW 13.0 mph20.9 kmh 30.40 in1029.5 mb 0.00 in0.0 mm 0.00 in0.0 mm 0.00 in0.0 mm
11:04 AM 49.6°F9.8°C 47.1°F8.4°C 91% 6.0 mph SSW9.7 kmh SSW 12.0 mph19.3 kmh 30.40 in1029.5 mb 0.00 in0.0 mm 0.00 in0.0 mm 0.00 in0.0 mm
11:09 AM 49.6°F9.8°C 47.1°F8.4°C 91% 7.0 mph SSW11.3 kmh SSW 11.0 mph17.7 kmh 30.40 in1029.5 mb 0.00 in0.0 mm 0.00 in0.0 mm 0.00 in0.0 mm
11:14 AM 49.5°F9.7°C 46.9°F8.3°C 91% 6.0 mph SW9.7 kmh SW 11.0 mph17.7 kmh 30.40 in1029.5 mb 0.00 in0.0 mm 0.00 in0.0 mm 0.00 in0.0 mm
11:19 AM 49.6°F9.8°C 47.1°F8.4°C 91% 8.0 mph SW12.9 kmh SW 11.0 mph17.7 kmh 30.40 in1029.5 mb 0.00 in0.0 mm 0.00 in0.0 mm 0.00 in0.0 mm
11:24 AM 49.6°F9.8°C 47.1°F8.4°C 91% 13.0 mph SW20.9 kmh SW 20.0 mph32.2 kmh 30.40 in1029.5 mb 0.00 in0.0 mm 0.00 in0.0 mm 0.00 in0.0 mm
11:29 AM 49.6°F9.8°C 47.1°F8.4°C 91% 8.0 mph SSW12.9 kmh SSW 12.0 mph19.3 kmh 30.41 in1029.8 mb 0.00 in0.0 mm 0.00 in0.0 mm 0.00 in0.0 mm
11:34 AM 49.3°F9.6°C 46.8°F8.2°C 91% 9.0 mph SW14.5 kmh SW 15.0 mph24.1 kmh 30.41 in1029.8 mb 0.00 in0.0 mm 0.00 in0.0 mm 0.00 in0.0 mm
11:39 AM 48.9°F9.4°C 46.7°F8.2°C 92% 9.0 mph SW14.5 kmh SW 14.0 mph22.5 kmh 30.41 in1029.8 mb 0.00 in0.0 mm 0.00 in0.0 mm 0.00 in0.0 mm
11:44 AM 48.9°F9.4°C 46.7°F8.2°C 92% 11.0 mph WSW17.7 kmh WSW 17.0 mph27.4 kmh 30.41 in1029.8 mb 0.00 in0.0 mm 0.00 in0.0 mm 0.00 in0.0 mm
11:49 AM 48.9°F9.4°C 46.7°F8.2°C 92% 11.0 mph SW17.7 kmh SW 15.0 mph24.1 kmh 30.41 in1029.8 mb 0.00 in0.0 mm 0.00 in0.0 mm 0.00 in0.0 mm
11:54 AM 49.3°F9.6°C 47.1°F8.4°C 92% 7.0 mph SW11.3 kmh SW 11.0 mph17.7 kmh 30.41 in1029.8 mb 0.00 in0.0 mm 0.00 in0.0 mm 0.00 in0.0 mm
11:59 AM 49.5°F9.7°C 47.2°F8.4°C 92% 7.0 mph S11.3 kmh S 10.0 mph16.1 kmh 30.40 in1029.5 mb 0.00 in0.0 mm 0.00 in0.0 mm 0.00 in0.0 mm
12:04 PM 49.3°F9.6°C 47.1°F8.4°C 92% 10.0 mph SW16.1 kmh SW 14.0 mph22.5 kmh 30.40 in1029.5 mb 0.00 in0.0 mm 0.00 in0.0 mm 0.00 in0.0 mm
12:09 PM 49.3°F9.6°C 47.1°F8.4°C 92% 10.0 mph SW16.1 kmh SW 14.0 mph22.5 kmh 30.40 in1029.5 mb 0.00 in0.0 mm 0.00 in0.0 mm 0.00 in0.0 mm
12:14 PM 49.5°F9.7°C 47.2°F8.4°C 92% 9.0 mph SW14.5 kmh SW 13.0 mph20.9 kmh 30.40 in1029.5 mb 0.00 in0.0 mm 0.00 in0.0 mm 0.00 in0.0 mm
12:19 PM 49.5°F9.7°C 47.2°F8.4°C 92% 13.0 mph SW20.9 kmh SW 20.0 mph32.2 kmh 30.41 in1029.8 mb 0.00 in0.0 mm 0.00 in0.0 mm 0.00 in0.0 mm
12:24 PM 49.5°F9.7°C 47.2°F8.4°C 92% 10.0 mph SW16.1 kmh SW 18.0 mph29.0 kmh 30.40 in1029.5 mb 0.00 in0.0 mm 0.00 in0.0 mm 0.00 in0.0 mm
12:29 PM 49.5°F9.7°C 47.2°F8.4°C 92% 9.0 mph SW14.5 kmh SW 17.0 mph27.4 kmh 30.40 in1029.5 mb 0.00 in0.0 mm 0.00 in0.0 mm 0.00 in0.0 mm
12:34 PM 49.5°F9.7°C 47.2°F8.4°C 92% 9.0 mph SW14.5 kmh SW 14.0 mph22.5 kmh 30.40 in1029.5 mb 0.00 in0.0 mm 0.00 in0.0 mm 0.00 in0.0 mm
12:39 PM 49.5°F9.7°C 47.2°F8.4°C 92% 10.0 mph WSW16.1 kmh WSW 15.0 mph24.1 kmh 30.40 in1029.5 mb 0.00 in0.0 mm 0.00 in0.0 mm 0.00 in0.0 mm
12:44 PM 49.5°F9.7°C 46.9°F8.3°C 91% 12.0 mph WSW19.3 kmh WSW 18.0 mph29.0 kmh 30.40 in1029.5 mb 0.00 in0.0 mm 0.00 in0.0 mm 0.00 in0.0 mm
12:49 PM 49.5°F9.7°C 46.9°F8.3°C 91% 12.0 mph SSW19.3 kmh SSW 18.0 mph29.0 kmh 30.40 in1029.5 mb 0.00 in0.0 mm 0.00 in0.0 mm 0.00 in0.0 mm
12:54 PM 49.5°F9.7°C 46.9°F8.3°C 91% 10.0 mph SW16.1 kmh SW 19.0 mph30.6 kmh 30.40 in1029.5 mb 0.00 in0.0 mm 0.00 in0.0 mm 0.00 in0.0 mm
12:59 PM 49.6°F9.8°C 47.1°F8.4°C 91% 12.0 mph SW19.3 kmh SW 17.0 mph27.4 kmh 30.40 in1029.5 mb 0.00 in0.0 mm 0.00 in0.0 mm 0.00 in0.0 mm
01:04 PM 49.8°F9.9°C 47.3°F8.5°C 91% 8.0 mph SSW12.9 kmh SSW 11.0 mph17.7 kmh 30.39 in1029.1 mb 0.00 in0.0 mm 0.00 in0.0 mm 0.00 in0.0 mm
01:09 PM 49.8°F9.9°C 47.3°F8.5°C 91% 11.0 mph SW17.7 kmh SW 17.0 mph27.4 kmh 30.39 in1029.1 mb 0.00 in0.0 mm 0.00 in0.0 mm 0.00 in0.0 mm
01:14 PM 49.6°F9.8°C 47.1°F8.4°C 91% 11.0 mph SW17.7 kmh SW 16.0 mph25.7 kmh 30.39 in1029.1 mb 0.00 in0.0 mm 0.00 in0.0 mm 0.00 in0.0 mm
01:19 PM 49.5°F9.7°C 47.2°F8.4°C 92% 11.0 mph SW17.7 kmh SW 20.0 mph32.2 kmh 30.39 in1029.1 mb 0.00 in0.0 mm 0.00 in0.0 mm 0.00 in0.0 mm
01:24 PM 49.3°F9.6°C 47.1°F8.4°C 92% 9.0 mph SSW14.5 kmh SSW 19.0 mph30.6 kmh 30.38 in1028.8 mb 0.00 in0.0 mm 0.00 in0.0 mm 0.00 in0.0 mm
01:29 PM 49.3°F9.6°C 47.1°F8.4°C 92% 10.0 mph SW16.1 kmh SW 18.0 mph29.0 kmh 30.37 in1028.4 mb 0.00 in0.0 mm 0.00 in0.0 mm 0.00 in0.0 mm
01:34 PM 49.3°F9.6°C 47.1°F8.4°C 92% 13.0 mph SW20.9 kmh SW 22.0 mph35.4 kmh 30.38 in1028.8 mb 0.00 in0.0 mm 0.00 in0.0 mm 0.00 in0.0 mm
01:39 PM 49.5°F9.7°C 47.2°F8.4°C 92% 8.0 mph SW12.9 kmh SW 14.0 mph22.5 kmh 30.38 in1028.8 mb 0.00 in0.0 mm 0.00 in0.0 mm 0.00 in0.0 mm
01:44 PM 49.5°F9.7°C 47.2°F8.4°C 92% 10.0 mph SW16.1 kmh SW 18.0 mph29.0 kmh 30.38 in1028.8 mb 0.00 in0.0 mm 0.00 in0.0 mm 0.00 in0.0 mm
01:49 PM 49.3°F9.6°C 47.1°F8.4°C 92% 11.0 mph SSW17.7 kmh SSW 22.0 mph35.4 kmh 30.39 in1029.1 mb 0.00 in0.0 mm 0.00 in0.0 mm 0.00 in0.0 mm
01:54 PM 49.3°F9.6°C 47.1°F8.4°C 92% 10.0 mph SSW16.1 kmh SSW 19.0 mph30.6 kmh 30.38 in1028.8 mb 0.00 in0.0 mm 0.00 in0.0 mm 0.00 in0.0 mm
02:00 PM 49.5°F9.7°C 47.2°F8.4°C 92% 10.0 mph SW16.1 kmh SW 14.0 mph22.5 kmh 30.38 in1028.8 mb 0.00 in0.0 mm 0.00 in0.0 mm 0.00 in0.0 mm
02:04 PM 49.5°F9.7°C 47.2°F8.4°C 92% 11.0 mph SW17.7 kmh SW 18.0 mph29.0 kmh 30.38 in1028.8 mb 0.00 in0.0 mm 0.00 in0.0 mm 0.00 in0.0 mm
02:09 PM 49.5°F9.7°C 47.2°F8.4°C 92% 11.0 mph SW17.7 kmh SW 15.0 mph24.1 kmh 30.38 in1028.8 mb 0.00 in0.0 mm 0.00 in0.0 mm 0.00 in0.0 mm
02:14 PM 49.5°F9.7°C 47.2°F8.4°C 92% 8.0 mph S12.9 kmh S 16.0 mph25.7 kmh 30.38 in1028.8 mb 0.00 in0.0 mm 0.00 in0.0 mm 0.00 in0.0 mm
02:19 PM 49.3°F9.6°C 47.1°F8.4°C 92% 10.0 mph SW16.1 kmh SW 17.0 mph27.4 kmh 30.38 in1028.8 mb 0.00 in0.0 mm 0.00 in0.0 mm 0.00 in0.0 mm
02:24 PM 49.5°F9.7°C 47.2°F8.4°C 92% 8.0 mph SSW12.9 kmh SSW 16.0 mph25.7 kmh 30.38 in1028.8 mb 0.00 in0.0 mm 0.00 in0.0 mm 0.00 in0.0 mm
02:29 PM 49.5°F9.7°C 47.2°F8.4°C 92% 7.0 mph SSW11.3 kmh SSW 12.0 mph19.3 kmh 30.38 in1028.8 mb 0.00 in0.0 mm 0.00 in0.0 mm 0.00 in0.0 mm
02:34 PM 49.6°F9.8°C 47.4°F8.6°C 92% 12.0 mph SW19.3 kmh SW 20.0 mph32.2 kmh 30.38 in1028.8 mb 0.00 in0.0 mm 0.00 in0.0 mm 0.00 in0.0 mm
02:39 PM 49.6°F9.8°C 47.4°F8.6°C 92% 10.0 mph S16.1 kmh S 13.0 mph20.9 kmh 30.37 in1028.4 mb 0.00 in0.0 mm 0.00 in0.0 mm 0.00 in0.0 mm
02:44 PM 49.8°F9.9°C 47.6°F8.7°C 92% 11.0 mph S17.7 kmh S 18.0 mph29.0 kmh 30.37 in1028.4 mb 0.00 in0.0 mm 0.00 in0.0 mm 0.00 in0.0 mm
02:49 PM 49.8°F9.9°C 47.6°F8.7°C 92% 11.0 mph SSW17.7 kmh SSW 16.0 mph25.7 kmh 30.37 in1028.4 mb 0.00 in0.0 mm 0.00 in0.0 mm 0.00 in0.0 mm
02:54 PM 49.6°F9.8°C 47.1°F8.4°C 91% 12.0 mph SSW19.3 kmh SSW 19.0 mph30.6 kmh 30.37 in1028.4 mb 0.00 in0.0 mm 0.00 in0.0 mm 0.00 in0.0 mm
02:59 PM 49.6°F9.8°C 47.4°F8.6°C 92% 11.0 mph SW17.7 kmh SW 21.0 mph33.8 kmh 30.37 in1028.4 mb 0.00 in0.0 mm 0.00 in0.0 mm 0.00 in0.0 mm
03:04 PM 49.5°F9.7°C 47.2°F8.4°C 92% 15.0 mph SW24.1 kmh SW 22.0 mph35.4 kmh 30.37 in1028.4 mb 0.00 in0.0 mm 0.00 in0.0 mm 0.00 in0.0 mm
03:09 PM 49.5°F9.7°C 47.2°F8.4°C 92% 10.0 mph SW16.1 kmh SW 15.0 mph24.1 kmh 30.38 in1028.8 mb 0.00 in0.0 mm 0.00 in0.0 mm 0.00 in0.0 mm
03:14 PM 49.5°F9.7°C 47.2°F8.4°C 92% 12.0 mph SSW19.3 kmh SSW 19.0 mph30.6 kmh 30.37 in1028.4 mb 0.00 in0.0 mm 0.00 in0.0 mm 0.00 in0.0 mm
03:19 PM 49.5°F9.7°C 47.2°F8.4°C 92% 11.0 mph S17.7 kmh S 17.0 mph27.4 kmh 30.38 in1028.8 mb 0.00 in0.0 mm 0.00 in0.0 mm 0.00 in0.0 mm
03:24 PM 49.3°F9.6°C 47.1°F8.4°C 92% 10.0 mph SSW16.1 kmh SSW 17.0 mph27.4 kmh 30.38 in1028.8 mb 0.00 in0.0 mm 0.00 in0.0 mm 0.00 in0.0 mm
03:29 PM 48.9°F9.4°C 46.7°F8.2°C 92% 10.0 mph SSW16.1 kmh SSW 13.0 mph20.9 kmh 30.38 in1028.8 mb 0.00 in0.0 mm 0.00 in0.0 mm 0.00 in0.0 mm
03:34 PM 48.7°F9.3°C 46.5°F8.1°C 92% 9.0 mph SW14.5 kmh SW 14.0 mph22.5 kmh 30.39 in1029.1 mb 0.00 in0.0 mm 0.00 in0.0 mm 0.00 in0.0 mm
03:39 PM 48.7°F9.3°C 46.8°F8.2°C 93% 9.0 mph SSW14.5 kmh SSW 13.0 mph20.9 kmh 30.38 in1028.8 mb 0.00 in0.0 mm 0.00 in0.0 mm 0.00 in0.0 mm
03:44 PM 48.7°F9.3°C 46.8°F8.2°C 93% 9.0 mph S14.5 kmh S 15.0 mph24.1 kmh 30.39 in1029.1 mb 0.00 in0.0 mm 0.00 in0.0 mm 0.00 in0.0 mm
03:49 PM 48.7°F9.3°C 46.8°F8.2°C 93% 9.0 mph S14.5 kmh S 13.0 mph20.9 kmh 30.38 in1028.8 mb 0.00 in0.0 mm 0.00 in0.0 mm 0.00 in0.0 mm
03:54 PM 48.7°F9.3°C 46.8°F8.2°C 93% 9.0 mph S14.5 kmh S 15.0 mph24.1 kmh 30.39 in1029.1 mb 0.00 in0.0 mm 0.00 in0.0 mm 0.00 in0.0 mm
03:59 PM 48.7°F9.3°C 46.8°F8.2°C 93% 10.0 mph S16.1 kmh S 16.0 mph25.7 kmh 30.39 in1029.1 mb 0.00 in0.0 mm 0.00 in0.0 mm 0.00 in0.0 mm
04:04 PM 48.6°F9.2°C 46.6°F8.1°C 93% 11.0 mph S17.7 kmh S 15.0 mph24.1 kmh 30.38 in1028.8 mb 0.00 in0.0 mm 0.00 in0.0 mm 0.00 in0.0 mm
04:09 PM 48.6°F9.2°C 46.6°F8.1°C 93% 8.0 mph SW12.9 kmh SW 14.0 mph22.5 kmh 30.38 in1028.8 mb 0.00 in0.0 mm 0.00 in0.0 mm 0.00 in0.0 mm
04:14 PM 48.9°F9.4°C 47.3°F8.5°C 94% 11.0 mph SW17.7 kmh SW 17.0 mph27.4 kmh 30.38 in1028.8 mb 0.00 in0.0 mm 0.00 in0.0 mm 0.00 in0.0 mm
04:19 PM 48.9°F9.4°C 47.0°F8.3°C 93% 10.0 mph SSW16.1 kmh SSW 16.0 mph25.7 kmh 30.38 in1028.8 mb 0.00 in0.0 mm 0.00 in0.0 mm 0.00 in0.0 mm
04:24 PM 49.1°F9.5°C 47.2°F8.4°C 93% 11.0 mph WSW17.7 kmh WSW 19.0 mph30.6 kmh 30.38 in1028.8 mb 0.00 in0.0 mm 0.00 in0.0 mm 0.00 in0.0 mm
04:29 PM 49.1°F9.5°C 47.2°F8.4°C 93% 11.0 mph SW17.7 kmh SW 15.0 mph24.1 kmh 30.38 in1028.8 mb 0.00 in0.0 mm 0.00 in0.0 mm 0.00 in0.0 mm
04:34 PM 48.9°F9.4°C 47.0°F8.3°C 93% 9.0 mph SW14.5 kmh SW 12.0 mph19.3 kmh 30.38 in1028.8 mb 0.00 in0.0 mm 0.00 in0.0 mm 0.00 in0.0 mm
04:39 PM 48.9°F9.4°C 47.0°F8.3°C 93% 7.0 mph S11.3 kmh S 14.0 mph22.5 kmh 30.38 in1028.8 mb 0.00 in0.0 mm 0.00 in0.0 mm 0.00 in0.0 mm
04:44 PM 48.7°F9.3°C 47.1°F8.4°C 94% 12.0 mph SSW19.3 kmh SSW 17.0 mph27.4 kmh 30.38 in1028.8 mb 0.00 in0.0 mm 0.00 in0.0 mm 0.00 in0.0 mm
04:49 PM 48.7°F9.3°C 47.1°F8.4°C 94% 8.0 mph WSW12.9 kmh WSW 15.0 mph24.1 kmh 30.39 in1029.1 mb 0.00 in0.0 mm 0.00 in0.0 mm 0.00 in0.0 mm
04:54 PM 48.7°F9.3°C 47.1°F8.4°C 94% 12.0 mph SW19.3 kmh SW 15.0 mph24.1 kmh 30.38 in1028.8 mb 0.00 in0.0 mm 0.00 in0.0 mm 0.00 in0.0 mm
04:59 PM 48.7°F9.3°C 47.1°F8.4°C 94% 10.0 mph SSW16.1 kmh SSW 18.0 mph29.0 kmh 30.38 in1028.8 mb 0.00 in0.0 mm 0.00 in0.0 mm 0.00 in0.0 mm
05:04 PM 48.7°F9.3°C 47.1°F8.4°C 94% 8.0 mph S12.9 kmh S 14.0 mph22.5 kmh 30.38 in1028.8 mb 0.00 in0.0 mm 0.00 in0.0 mm 0.00 in0.0 mm
05:09 PM 48.6°F9.2°C 46.9°F8.3°C 94% 9.0 mph S14.5 kmh S 14.0 mph22.5 kmh 30.38 in1028.8 mb 0.00 in0.0 mm 0.00 in0.0 mm 0.00 in0.0 mm
05:14 PM 48.6°F9.2°C 46.9°F8.3°C 94% 9.0 mph SW14.5 kmh SW 14.0 mph22.5 kmh 30.38 in1028.8 mb 0.00 in0.0 mm 0.00 in0.0 mm 0.00 in0.0 mm
05:19 PM 48.2°F9.0°C 46.6°F8.1°C 94% 12.0 mph SW19.3 kmh SW 18.0 mph29.0 kmh 30.38 in1028.8 mb 0.00 in0.0 mm 0.00 in0.0 mm 0.00 in0.0 mm
05:24 PM 48.0°F8.9°C 46.4°F8.0°C 94% 9.0 mph SSW14.5 kmh SSW 14.0 mph22.5 kmh 30.38 in1028.8 mb 0.00 in0.0 mm 0.00 in0.0 mm 0.00 in0.0 mm
05:29 PM 47.8°F8.8°C 46.2°F7.9°C 94% 9.0 mph S14.5 kmh S 16.0 mph25.7 kmh 30.38 in1028.8 mb 0.00 in0.0 mm 0.00 in0.0 mm 0.00 in0.0 mm
05:34 PM 47.8°F8.8°C 46.2°F7.9°C 94% 7.0 mph SSW11.3 kmh SSW 11.0 mph17.7 kmh 30.38 in1028.8 mb 0.00 in0.0 mm 0.00 in0.0 mm 0.00 in0.0 mm
05:39 PM 47.8°F8.8°C 46.2°F7.9°C 94% 10.0 mph SSW16.1 kmh SSW 17.0 mph27.4 kmh 30.39 in1029.1 mb 0.00 in0.0 mm 0.00 in0.0 mm 0.00 in0.0 mm
05:44 PM 47.8°F8.8°C 46.2°F7.9°C 94% 8.0 mph SW12.9 kmh SW 13.0 mph20.9 kmh 30.38 in1028.8 mb 0.00 in0.0 mm 0.00 in0.0 mm 0.00 in0.0 mm
05:49 PM 47.8°F8.8°C 46.2°F7.9°C 94% 12.0 mph S19.3 kmh S 18.0 mph29.0 kmh 30.38 in1028.8 mb 0.00 in0.0 mm 0.00 in0.0 mm 0.00 in0.0 mm
05:54 PM 47.8°F8.8°C 46.2°F7.9°C 94% 13.0 mph SW20.9 kmh SW 21.0 mph33.8 kmh 30.38 in1028.8 mb 0.00 in0.0 mm 0.00 in0.0 mm 0.00 in0.0 mm
05:59 PM 47.8°F8.8°C 46.2°F7.9°C 94% 8.0 mph S12.9 kmh S 15.0 mph24.1 kmh 30.37 in1028.4 mb 0.00 in0.0 mm 0.00 in0.0 mm 0.00 in0.0 mm
06:04 PM 47.8°F8.8°C 46.2°F7.9°C 94% 11.0 mph SSW17.7 kmh SSW 18.0 mph29.0 kmh 30.38 in1028.8 mb 0.00 in0.0 mm 0.00 in0.0 mm 0.00 in0.0 mm
06:09 PM 47.8°F8.8°C 46.2°F7.9°C 94% 13.0 mph SSW20.9 kmh SSW 18.0 mph29.0 kmh 30.38 in1028.8 mb 0.00 in0.0 mm 0.00 in0.0 mm 0.00 in0.0 mm
06:14 PM 47.8°F8.8°C 46.2°F7.9°C 94% 11.0 mph SSW17.7 kmh SSW 17.0 mph27.4 kmh 30.38 in1028.8 mb 0.00 in0.0 mm 0.00 in0.0 mm 0.00 in0.0 mm
06:19 PM 47.8°F8.8°C 46.2°F7.9°C 94% 11.0 mph SSW17.7 kmh SSW 22.0 mph35.4 kmh 30.37 in1028.4 mb 0.00 in0.0 mm 0.00 in0.0 mm 0.00 in0.0 mm
06:24 PM 47.8°F8.8°C 46.5°F8.1°C 95% 10.0 mph SSW16.1 kmh SSW 19.0 mph30.6 kmh 30.38 in1028.8 mb 0.00 in0.0 mm 0.00 in0.0 mm 0.00 in0.0 mm
06:29 PM 48.0°F8.9°C 46.7°F8.2°C 95% 14.0 mph SW22.5 kmh SW 21.0 mph33.8 kmh 30.39 in1029.1 mb 0.00 in0.0 mm 0.00 in0.0 mm 0.00 in0.0 mm
06:34 PM 48.0°F8.9°C 46.7°F8.2°C 95% 14.0 mph SW22.5 kmh SW 20.0 mph32.2 kmh 30.38 in1028.8 mb 0.00 in0.0 mm 0.00 in0.0 mm 0.00 in0.0 mm
06:39 PM 48.2°F9.0°C 46.6°F8.1°C 94% 13.0 mph SSW20.9 kmh SSW 20.0 mph32.2 kmh 30.38 in1028.8 mb 0.00 in0.0 mm 0.00 in0.0 mm 0.00 in0.0 mm
06:44 PM 48.4°F9.1°C 46.7°F8.2°C 94% 11.0 mph SW17.7 kmh SW 20.0 mph32.2 kmh 30.38 in1028.8 mb 0.00 in0.0 mm 0.00 in0.0 mm 0.00 in0.0 mm
06:49 PM 48.4°F9.1°C 46.7°F8.2°C 94% 11.0 mph SSW17.7 kmh SSW 16.0 mph25.7 kmh 30.38 in1028.8 mb 0.00 in0.0 mm 0.00 in0.0 mm 0.00 in0.0 mm
06:54 PM 48.4°F9.1°C 46.7°F8.2°C 94% 11.0 mph S17.7 kmh S 16.0 mph25.7 kmh 30.39 in1029.1 mb 0.00 in0.0 mm 0.00 in0.0 mm 0.00 in0.0 mm
06:59 PM 48.4°F9.1°C 46.7°F8.2°C 94% 12.0 mph SSW19.3 kmh SSW 17.0 mph27.4 kmh 30.39 in1029.1 mb 0.00 in0.0 mm 0.00 in0.0 mm 0.00 in0.0 mm
07:04 PM 48.2°F9.0°C 46.6°F8.1°C 94% 12.0 mph SSW19.3 kmh SSW 19.0 mph30.6 kmh 30.38 in1028.8 mb 0.00 in0.0 mm 0.00 in0.0 mm 0.00 in0.0 mm
07:09 PM 48.2°F9.0°C 46.6°F8.1°C 94% 13.0 mph SSW20.9 kmh SSW 18.0 mph29.0 kmh 30.38 in1028.8 mb 0.00 in0.0 mm 0.00 in0.0 mm 0.00 in0.0 mm
07:14 PM 48.0°F8.9°C 46.4°F8.0°C 94% 11.0 mph SW17.7 kmh SW 21.0 mph33.8 kmh 30.38 in1028.8 mb 0.00 in0.0 mm 0.00 in0.0 mm 0.00 in0.0 mm
07:19 PM 48.0°F8.9°C 46.4°F8.0°C 94% 12.0 mph SSW19.3 kmh SSW 20.0 mph32.2 kmh 30.38 in1028.8 mb 0.00 in0.0 mm 0.00 in0.0 mm 0.00 in0.0 mm
07:24 PM 48.0°F8.9°C 46.4°F8.0°C 94% 9.0 mph SSW14.5 kmh SSW 15.0 mph24.1 kmh 30.39 in1029.1 mb 0.00 in0.0 mm 0.00 in0.0 mm 0.00 in0.0 mm
07:29 PM 48.0°F8.9°C 46.4°F8.0°C 94% 9.0 mph SSW14.5 kmh SSW 13.0 mph20.9 kmh 30.39 in1029.1 mb 0.00 in0.0 mm 0.00 in0.0 mm 0.00 in0.0 mm
07:34 PM 48.0°F8.9°C 46.4°F8.0°C 94% 11.0 mph SW17.7 kmh SW 19.0 mph30.6 kmh 30.39 in1029.1 mb 0.00 in0.0 mm 0.00 in0.0 mm 0.00 in0.0 mm
07:39 PM 48.2°F9.0°C 46.6°F8.1°C 94% 8.0 mph SSW12.9 kmh SSW 10.0 mph16.1 kmh 30.38 in1028.8 mb 0.00 in0.0 mm 0.00 in0.0 mm 0.00 in0.0 mm
07:44 PM 48.2°F9.0°C 46.6°F8.1°C 94% 9.0 mph SSW14.5 kmh SSW 13.0 mph20.9 kmh 30.39 in1029.1 mb 0.00 in0.0 mm 0.00 in0.0 mm 0.00 in0.0 mm
07:49 PM 48.2°F9.0°C 46.6°F8.1°C 94% 9.0 mph S14.5 kmh S 16.0 mph25.7 kmh 30.39 in1029.1 mb 0.00 in0.0 mm 0.00 in0.0 mm 0.00 in0.0 mm
07:54 PM 48.4°F9.1°C 46.7°F8.2°C 94% 9.0 mph S14.5 kmh S 12.0 mph19.3 kmh 30.39 in1029.1 mb 0.00 in0.0 mm 0.00 in0.0 mm 0.00 in0.0 mm
07:59 PM 48.4°F9.1°C 46.7°F8.2°C 94% 9.0 mph SSW14.5 kmh SSW 13.0 mph20.9 kmh 30.39 in1029.1 mb 0.00 in0.0 mm 0.00 in0.0 mm 0.00 in0.0 mm
08:04 PM 48.4°F9.1°C 46.7°F8.2°C 94% 9.0 mph SW14.5 kmh SW 13.0 mph20.9 kmh 30.39 in1029.1 mb 0.00 in0.0 mm 0.00 in0.0 mm 0.00 in0.0 mm
08:09 PM 48.4°F9.1°C 46.7°F8.2°C 94% 7.0 mph SSW11.3 kmh SSW 9.0 mph14.5 kmh 30.39 in1029.1 mb 0.00 in0.0 mm 0.00 in0.0 mm 0.00 in0.0 mm
08:14 PM 48.4°F9.1°C 46.7°F8.2°C 94% 11.0 mph SSW17.7 kmh SSW 17.0 mph27.4 kmh 30.39 in1029.1 mb 0.00 in0.0 mm 0.00 in0.0 mm 0.00 in0.0 mm
08:19 PM 48.4°F9.1°C 46.7°F8.2°C 94% 11.0 mph SSW17.7 kmh SSW 15.0 mph24.1 kmh 30.39 in1029.1 mb 0.00 in0.0 mm 0.00 in0.0 mm 0.00 in0.0 mm
08:24 PM 48.4°F9.1°C 46.7°F8.2°C 94% 6.0 mph SW9.7 kmh SW 12.0 mph19.3 kmh 30.39 in1029.1 mb 0.00 in0.0 mm 0.00 in0.0 mm 0.00 in0.0 mm
08:29 PM 48.4°F9.1°C 46.7°F8.2°C 94% 11.0 mph SW17.7 kmh SW 16.0 mph25.7 kmh 30.39 in1029.1 mb 0.00 in0.0 mm 0.00 in0.0 mm 0.00 in0.0 mm
08:34 PM 48.4°F9.1°C 46.7°F8.2°C 94% 11.0 mph SSW17.7 kmh SSW 18.0 mph29.0 kmh 30.39 in1029.1 mb 0.00 in0.0 mm 0.00 in0.0 mm 0.00 in0.0 mm
08:39 PM 48.4°F9.1°C 46.7°F8.2°C 94% 11.0 mph WSW17.7 kmh WSW 20.0 mph32.2 kmh 30.39 in1029.1 mb 0.00 in0.0 mm 0.00 in0.0 mm 0.00 in0.0 mm
08:44 PM 48.4°F9.1°C 46.7°F8.2°C 94% 15.0 mph SW24.1 kmh SW 24.0 mph38.6 kmh 30.39 in1029.1 mb 0.00 in0.0 mm 0.00 in0.0 mm 0.00 in0.0 mm
08:49 PM 48.2°F9.0°C 46.6°F8.1°C 94% 10.0 mph SSW16.1 kmh SSW 15.0 mph24.1 kmh 30.39 in1029.1 mb 0.00 in0.0 mm 0.00 in0.0 mm 0.00 in0.0 mm
08:54 PM 48.2°F9.0°C 46.6°F8.1°C 94% 9.0 mph SSW14.5 kmh SSW 13.0 mph20.9 kmh 30.39 in1029.1 mb 0.00 in0.0 mm 0.00 in0.0 mm 0.00 in0.0 mm
08:59 PM 48.4°F9.1°C 46.7°F8.2°C 94% 10.0 mph SSW16.1 kmh SSW 16.0 mph25.7 kmh 30.39 in1029.1 mb 0.00 in0.0 mm 0.00 in0.0 mm 0.00 in0.0 mm
09:04 PM 48.2°F9.0°C 46.6°F8.1°C 94% 12.0 mph SW19.3 kmh SW 19.0 mph30.6 kmh 30.39 in1029.1 mb 0.00 in0.0 mm 0.00 in0.0 mm 0.00 in0.0 mm
09:09 PM 48.0°F8.9°C 46.7°F8.2°C 95% 15.0 mph SW24.1 kmh SW 22.0 mph35.4 kmh 30.39 in1029.1 mb 0.00 in0.0 mm 0.00 in0.0 mm 0.00 in0.0 mm
09:14 PM 48.0°F8.9°C 46.7°F8.2°C 95% 11.0 mph SSW17.7 kmh SSW 19.0 mph30.6 kmh 30.39 in1029.1 mb 0.00 in0.0 mm 0.00 in0.0 mm 0.00 in0.0 mm
09:19 PM 48.0°F8.9°C 46.7°F8.2°C 95% 13.0 mph SW20.9 kmh SW 19.0 mph30.6 kmh 30.39 in1029.1 mb 0.00 in0.0 mm 0.00 in0.0 mm 0.00 in0.0 mm
09:24 PM 48.4°F9.1°C 47.0°F8.3°C 95% 16.0 mph SSW25.7 kmh SSW 24.0 mph38.6 kmh 30.39 in1029.1 mb 0.00 in0.0 mm 0.00 in0.0 mm 0.00 in0.0 mm
09:29 PM 48.4°F9.1°C 47.0°F8.3°C 95% 13.0 mph SW20.9 kmh SW 18.0 mph29.0 kmh 30.39 in1029.1 mb 0.00 in0.0 mm 0.00 in0.0 mm 0.00 in0.0 mm
09:34 PM 48.6°F9.2°C 47.2°F8.4°C 95% 15.0 mph SW24.1 kmh SW 22.0 mph35.4 kmh 30.38 in1028.8 mb 0.00 in0.0 mm 0.00 in0.0 mm 0.00 in0.0 mm
09:39 PM 48.7°F9.3°C 47.4°F8.6°C 95% 13.0 mph SW20.9 kmh SW 19.0 mph30.6 kmh 30.38 in1028.8 mb 0.00 in0.0 mm 0.00 in0.0 mm 0.00 in0.0 mm
09:44 PM 48.9°F9.4°C 47.6°F8.7°C 95% 12.0 mph SW19.3 kmh SW 21.0 mph33.8 kmh 30.38 in1028.8 mb 0.00 in0.0 mm 0.00 in0.0 mm 0.00 in0.0 mm
09:49 PM 48.9°F9.4°C 47.3°F8.5°C 94% 11.0 mph S17.7 kmh S 19.0 mph30.6 kmh 30.38 in1028.8 mb 0.00 in0.0 mm 0.00 in0.0 mm 0.00 in0.0 mm
09:54 PM 48.9°F9.4°C 47.3°F8.5°C 94% 8.0 mph S12.9 kmh S 11.0 mph17.7 kmh 30.38 in1028.8 mb 0.00 in0.0 mm 0.00 in0.0 mm 0.00 in0.0 mm
10:00 PM 48.7°F9.3°C 47.1°F8.4°C 94% 13.0 mph SW20.9 kmh SW 20.0 mph32.2 kmh 30.38 in1028.8 mb 0.00 in0.0 mm 0.00 in0.0 mm 0.00 in0.0 mm
10:04 PM 48.7°F9.3°C 47.1°F8.4°C 94% 14.0 mph SW22.5 kmh SW 21.0 mph33.8 kmh 30.38 in1028.8 mb 0.00 in0.0 mm 0.00 in0.0 mm 0.00 in0.0 mm
10:09 PM 48.7°F9.3°C 47.1°F8.4°C 94% 12.0 mph SSW19.3 kmh SSW 19.0 mph30.6 kmh 30.38 in1028.8 mb 0.00 in0.0 mm 0.00 in0.0 mm 0.00 in0.0 mm
10:14 PM 48.6°F9.2°C 46.9°F8.3°C 94% 10.0 mph SW16.1 kmh SW 17.0 mph27.4 kmh 30.38 in1028.8 mb 0.00 in0.0 mm 0.00 in0.0 mm 0.00 in0.0 mm
10:19 PM 48.6°F9.2°C 46.9°F8.3°C 94% 11.0 mph SSW17.7 kmh SSW 18.0 mph29.0 kmh 30.39 in1029.1 mb 0.00 in0.0 mm 0.00 in0.0 mm 0.00 in0.0 mm
10:24 PM 48.4°F9.1°C 46.7°F8.2°C 94% 11.0 mph SW17.7 kmh SW 15.0 mph24.1 kmh 30.38 in1028.8 mb 0.00 in0.0 mm 0.00 in0.0 mm 0.00 in0.0 mm
10:29 PM 48.4°F9.1°C 46.7°F8.2°C 94% 12.0 mph SSW19.3 kmh SSW 20.0 mph32.2 kmh 30.38 in1028.8 mb 0.00 in0.0 mm 0.00 in0.0 mm 0.00 in0.0 mm
10:34 PM 48.6°F9.2°C 46.9°F8.3°C 94% 11.0 mph SW17.7 kmh SW 18.0 mph29.0 kmh 30.38 in1028.8 mb 0.00 in0.0 mm 0.00 in0.0 mm 0.00 in0.0 mm
10:39 PM 48.6°F9.2°C 46.9°F8.3°C 94% 10.0 mph SW16.1 kmh SW 15.0 mph24.1 kmh 30.38 in1028.8 mb 0.00 in0.0 mm 0.00 in0.0 mm 0.00 in0.0 mm
10:44 PM 48.4°F9.1°C 46.7°F8.2°C 94% 7.0 mph SW11.3 kmh SW 9.0 mph14.5 kmh 30.38 in1028.8 mb 0.00 in0.0 mm 0.00 in0.0 mm 0.00 in0.0 mm
10:49 PM 48.6°F9.2°C 47.2°F8.4°C 95% 12.0 mph SSW19.3 kmh SSW 19.0 mph30.6 kmh 30.38 in1028.8 mb 0.00 in0.0 mm 0.00 in0.0 mm 0.00 in0.0 mm
10:54 PM 48.7°F9.3°C 47.4°F8.6°C 95% 9.0 mph SW14.5 kmh SW 14.0 mph22.5 kmh 30.38 in1028.8 mb 0.00 in0.0 mm 0.00 in0.0 mm 0.00 in0.0 mm
10:59 PM 48.9°F9.4°C 47.3°F8.5°C 94% 10.0 mph SW16.1 kmh SW 16.0 mph25.7 kmh 30.38 in1028.8 mb 0.00 in0.0 mm 0.00 in0.0 mm 0.00 in0.0 mm
11:04 PM 49.1°F9.5°C 47.4°F8.6°C 94% 9.0 mph SSW14.5 kmh SSW 15.0 mph24.1 kmh 30.38 in1028.8 mb 0.00 in0.0 mm 0.00 in0.0 mm 0.00 in0.0 mm
11:09 PM 49.3°F9.6°C 47.6°F8.7°C 94% 7.0 mph SSW11.3 kmh SSW 15.0 mph24.1 kmh 30.38 in1028.8 mb 0.00 in0.0 mm 0.00 in0.0 mm 0.00 in0.0 mm
11:14 PM 49.5°F9.7°C 47.8°F8.8°C 94% 10.0 mph SSW16.1 kmh SSW 14.0 mph22.5 kmh 30.38 in1028.8 mb 0.00 in0.0 mm 0.00 in0.0 mm 0.00 in0.0 mm
11:19 PM 49.6°F9.8°C 48.0°F8.9°C 94% 11.0 mph SW17.7 kmh SW 16.0 mph25.7 kmh 30.37 in1028.4 mb 0.00 in0.0 mm 0.00 in0.0 mm 0.00 in0.0 mm
11:24 PM 49.8°F9.9°C 47.9°F8.8°C 93% 7.0 mph S11.3 kmh S 12.0 mph19.3 kmh 30.37 in1028.4 mb 0.00 in0.0 mm 0.00 in0.0 mm 0.00 in0.0 mm
11:29 PM 49.6°F9.8°C 47.7°F8.7°C 93% 11.0 mph SW17.7 kmh SW 19.0 mph30.6 kmh 30.38 in1028.8 mb 0.00 in0.0 mm 0.00 in0.0 mm 0.00 in0.0 mm
11:34 PM 49.5°F9.7°C 47.5°F8.6°C 93% 8.0 mph SSW12.9 kmh SSW 11.0 mph17.7 kmh 30.37 in1028.4 mb 0.00 in0.0 mm 0.00 in0.0 mm 0.00 in0.0 mm
11:39 PM 49.5°F9.7°C 47.5°F8.6°C 93% 10.0 mph SW16.1 kmh SW 14.0 mph22.5 kmh 30.37 in1028.4 mb 0.00 in0.0 mm 0.00 in0.0 mm 0.00 in0.0 mm
11:44 PM 49.5°F9.7°C 47.5°F8.6°C 93% 6.0 mph SSW9.7 kmh SSW 9.0 mph14.5 kmh 30.37 in1028.4 mb 0.00 in0.0 mm 0.00 in0.0 mm 0.00 in0.0 mm
11:49 PM 49.6°F9.8°C 47.7°F8.7°C 93% 8.0 mph SW12.9 kmh SW 13.0 mph20.9 kmh 30.37 in1028.4 mb 0.00 in0.0 mm 0.00 in0.0 mm 0.00 in0.0 mm
11:54 PM 49.8°F9.9°C 47.6°F8.7°C 92% 11.0 mph SW17.7 kmh SW 16.0 mph25.7 kmh 30.37 in1028.4 mb 0.00 in0.0 mm 0.00 in0.0 mm 0.00 in0.0 mm
11:59 PM 50.2°F10.1°C 47.9°F8.8°C 92% 8.0 mph SW12.9 kmh SW 15.0 mph24.1 kmh 30.37 in1028.4 mb 0.00 in0.0 mm 0.00 in0.0 mm 0.00 in0.0 mm